Nelson, United Kingdom
Current Conditions -  °F | °C
As of 8:20 PM on Wednesday 26 Nov 2014 (Local Time) from EGNM Reporting Station
Moderate Fog Moderate Fog  
Wind Chill: 40°   Ceiling: 200
Heat Index: 43°   Visibility: 0.56mi
Dew Point: 43°   Wind: 5mph
Humidity: 100%   Direction: 30°NNE
Pressure: 29.8"   Gusts: NA
Location:  53.84°N, 2.22°W
Report Text: EGNM 262020Z 03004KT 360V070 0900 R32/1100 FG SCT001 BKN002 06/06 Q1009
Loading
Personal Weather Stations






























Interactive Weather Map New forecast layout! Learn more

10-Day Weather Forecast

Advertisements
Track Severe Weather on mobile